MUC | München Airways

 METAR UND TAF INFORMATION

METAR FOR ENVA
ADDS - METARS form results

(1356 UTC 24 January 2019)
Data provider http://aviationweather.gov/metar/data/
 
METAR text: ENVA 241350Z VRB01KT 9999 VCSH OVC038 M07/M09 Q1010 NOSIG RMK WIND 670FT VRB03KT
Conditions at: ENVA (TRONDHEIM/VAERNE, NO) observed 1350 UTC 24 January 2019
Temperature: -7.0°C (19°F)
Dewpoint: -9.0°C (16°F) [RH = 86%]
Pressure (altimeter): 29.82 inches Hg (1010.0 mb)
Winds: variable direction winds at 1 MPH (1 knots; 0.5 m/s)
Visibility: 6 or more miles (10+ km)
Ceiling: 3800 feet AGL
Clouds: overcast cloud deck at 3800 feet AGL
Weather: VCSH  (showers in vicinity)

METAR text: ENVA 241320Z 09004KT 9999 BKN044 OVC057 M07/M10 Q1010 NOSIG RMK WIND 670FT 11007KT
Conditions at: ENVA (TRONDHEIM/VAERNE, NO) observed 1320 UTC 24 January 2019
Temperature: -7.0°C (19°F)
Dewpoint: -10.0°C (14°F) [RH = 79%]
Pressure (altimeter): 29.82 inches Hg (1010.0 mb)
Winds: from the E (90 degrees) at 5 MPH (4 knots; 2.1 m/s)
Visibility: 6 or more miles (10+ km)
Ceiling: 4400 feet AGL
Clouds: broken clouds at 4400 feet AGL
overcast cloud deck at 5700 feet AGL
Weather: no significant weather observed at this time

Forecast for: ENVA (TRONDHEIM/VAERNE, NO)
Text: TAF ENVA 2412/2512 12008KT 9999 FEW030 BKN080
Forecast period: 1200 UTC 24 January 2019 to 1200 UTC 25 January 2019
Forecast type: FROM: standard forecast or significant change
Winds: from the ESE (120 degrees) at 9 MPH (8 knots; 4.1 m/s)
Visibility: 6 or more miles 10+ km)
Ceiling: 8000 feet AGL
Clouds: few clouds at 3000 feet AGL
broken clouds at 8000 feet AGL
Weather: no significant weather forecast for this period

 FLUGHAFENKARTE

 RUNWAY INFORMATION
Runway 09 Runway length 9052 ft Runway width 148 ft
Runway elevation 17 ft Runway displaced threshold 830 ft Runway heading 90
Runway 27 Runway length 9052 ft Runway width 148 ft
Runway elevation 56 ft Runway displaced threshold 459 ft Runway heading 270
Runway 13 Runway length 4771 ft Runway width 118 ft
Runway elevation 30 ft Runway displaced threshold 412 ft Runway heading 134
Runway 31 Runway length 4771 ft Runway width 118 ft
Runway elevation 54 ft Runway displaced threshold 962 ft Runway heading 314
Runway 14 Runway length 3117 ft Runway width 118 ft
Runway elevation 30 ft Runway displaced threshold 0 ft Runway heading 134
Runway 32 Runway length 3117 ft Runway width 118 ft
Runway elevation 54 ft Runway displaced threshold 0 ft Runway heading 314

 AIRPORT FREQUENCIES
Type APP Name APP Frequency 118.6 MHZ
Type ATIS Name ATIS Frequency 127.55 MHZ
Type TWR Name TWR Frequency 119.4 MHZ
Type GND Name Værnes gro Frequency 121.6 MHZ

 AIRPORT NEAR NAVIGATION AIDS
Type NDB Name Flornes Frequency 380 KHZ
Type NDB Name Grakallen Frequency 358 KHZ
Type VOR-DME Name Trondheim Frequency 112500 KHZ
Type TACAN Name Vaernes Frequency 109600 KHZ